createdAt,value
2019-04-20T00:01:38.760Z,11.78
2019-04-20T00:04:10.804Z,12.04
2019-04-20T00:06:45.093Z,11.96
2019-04-20T00:09:18.299Z,11.87
2019-04-20T00:11:50.719Z,11.83
2019-04-20T00:14:15.957Z,11.79
2019-04-20T00:16:41.941Z,12.10
2019-04-20T00:19:10.740Z,11.74
2019-04-20T00:21:53.501Z,11.38
2019-04-20T00:24:23.387Z,10.58
2019-04-20T00:27:15.922Z,10.84
2019-04-20T00:29:40.455Z,10.71
2019-04-20T00:32:03.075Z,10.74
2019-04-20T00:34:26.654Z,11.22
2019-04-20T00:36:51.922Z,10.58
2019-04-20T00:39:21.786Z,10.82
2019-04-20T00:41:56.077Z,11.58
2019-04-20T00:44:25.153Z,11.68
2019-04-20T00:47:04.494Z,11.69
2019-04-20T00:49:35.004Z,11.51
2019-04-20T00:52:18.835Z,11.27
2019-04-20T00:54:22.337Z,11.47
2019-04-20T00:56:53.171Z,11.45
2019-04-20T00:59:35.468Z,11.32
2019-04-20T01:02:09.064Z,11.23
2019-04-20T01:04:40.977Z,11.37
2019-04-20T01:07:10.755Z,11.32
2019-04-20T01:09:28.848Z,11.70
2019-04-20T01:11:58.632Z,10.55
2019-04-20T01:14:38.054Z,10.92
2019-04-20T01:17:06.987Z,10.78
2019-04-20T01:19:27.937Z,11.21
2019-04-20T01:22:03.621Z,10.74
2019-04-20T01:24:31.464Z,11.30
2019-04-20T01:27:00.788Z,10.94
2019-04-20T01:29:38.375Z,11.14
2019-04-20T01:32:12.500Z,10.70
2019-04-20T01:34:42.759Z,10.53
2019-04-20T01:37:13.109Z,10.94
2019-04-20T01:39:37.117Z,10.73
2019-04-20T01:42:00.337Z,10.85
2019-04-20T01:44:34.260Z,10.95
2019-04-20T01:47:03.181Z,11.21
2019-04-20T01:49:32.435Z,11.42
2019-04-20T01:52:10.724Z,11.38
2019-04-20T01:54:52.805Z,10.90
2019-04-20T01:57:10.276Z,10.88
2019-04-20T01:59:47.073Z,11.39
2019-04-20T02:02:29.406Z,11.69
2019-04-20T02:05:06.229Z,11.52
2019-04-20T02:07:36.699Z,11.75
2019-04-20T02:10:03.649Z,11.80
2019-04-20T02:12:34.263Z,11.43
2019-04-20T02:15:04.282Z,11.29
2019-04-20T02:17:39.309Z,10.96
2019-04-20T02:20:22.812Z,11.34
2019-04-20T02:22:49.018Z,11.47
2019-04-20T02:25:03.519Z,11.46
2019-04-20T02:27:40.878Z,11.30
2019-04-20T02:30:30.433Z,11.24
2019-04-20T02:33:19.295Z,11.71
2019-04-20T02:35:56.756Z,11.59
2019-04-20T02:38:21.791Z,11.85
2019-04-20T02:43:25.312Z,11.88
2019-04-20T02:48:23.535Z,11.79
2019-04-20T02:50:54.452Z,11.67
2019-04-20T02:53:32.713Z,11.09
2019-04-20T02:55:58.209Z,11.04
2019-04-20T02:58:23.947Z,11.09
2019-04-20T03:00:44.468Z,10.92
2019-04-20T03:03:07.913Z,11.16
2019-04-20T03:05:35.206Z,10.93
2019-04-20T03:08:13.775Z,10.99
2019-04-20T03:10:53.879Z,11.34
2019-04-20T03:13:15.894Z,10.97
2019-04-20T03:15:42.398Z,10.86
2019-04-20T03:18:18.079Z,10.80
2019-04-20T03:20:47.813Z,10.87
2019-04-20T03:26:05.317Z,11.01
2019-04-20T03:28:45.647Z,11.10
2019-04-20T03:32:03.933Z,11.09
2019-04-20T03:34:38.298Z,11.23
2019-04-20T03:36:50.267Z,10.60
2019-04-20T03:39:10.036Z,10.58
2019-04-20T03:41:30.476Z,10.79
2019-04-20T03:43:49.814Z,10.68
2019-04-20T03:46:25.497Z,10.77
2019-04-20T03:49:04.227Z,10.79
2019-04-20T03:51:39.810Z,10.81
2019-04-20T03:54:14.773Z,10.98
2019-04-20T03:56:49.648Z,10.86
2019-04-20T03:59:19.493Z,10.61
2019-04-20T04:02:22.191Z,10.45
2019-04-20T04:04:56.040Z,10.32
2019-04-20T04:07:17.919Z,10.45
2019-04-20T04:09:56.405Z,10.23
2019-04-20T04:12:46.806Z,10.15
2019-04-20T04:15:14.892Z,10.45
2019-04-20T04:17:45.573Z,9.92
2019-04-20T04:20:17.748Z,10.44
2019-04-20T04:23:06.063Z,10.81
2019-04-20T04:25:24.963Z,10.59
2019-04-20T04:28:06.347Z,10.54
2019-04-20T04:30:32.018Z,10.67
2019-04-20T04:33:33.974Z,10.65
2019-04-20T04:35:29.819Z,10.61
2019-04-20T04:38:11.275Z,10.57
2019-04-20T04:40:49.812Z,10.50
2019-04-20T04:43:10.395Z,10.58
2019-04-20T04:45:24.030Z,10.78
2019-04-20T04:47:51.386Z,10.50
2019-04-20T04:50:24.849Z,10.74
2019-04-20T04:52:59.671Z,10.39
2019-04-20T04:55:34.461Z,10.49
2019-04-20T04:57:51.625Z,10.41
2019-04-20T05:00:26.202Z,10.50
2019-04-20T05:02:57.990Z,10.48
2019-04-20T05:05:41.277Z,10.38
2019-04-20T05:08:02.825Z,10.05
2019-04-20T05:10:24.629Z,10.15
2019-04-20T05:12:54.701Z,10.51
2019-04-20T05:15:37.316Z,10.64
2019-04-20T05:18:14.091Z,11.09
2019-04-20T05:20:46.833Z,11.29
2019-04-20T05:23:12.671Z,11.01
2019-04-20T05:25:56.993Z,11.25
2019-04-20T05:28:20.732Z,11.35
2019-04-20T05:30:45.746Z,11.52
2019-04-20T05:33:21.400Z,10.93
2019-04-20T05:36:01.918Z,11.16
2019-04-20T05:38:36.378Z,11.88
2019-04-20T05:41:04.496Z,11.25
2019-04-20T05:43:37.191Z,11.75
2019-04-20T05:46:08.366Z,12.05
2019-04-20T05:48:40.869Z,12.03
2019-04-20T05:51:12.151Z,10.90
2019-04-20T05:53:48.834Z,11.16
2019-04-20T05:56:08.881Z,11.63
2019-04-20T05:58:38.473Z,11.16
2019-04-20T06:01:18.561Z,11.76
2019-04-20T06:03:38.282Z,11.36
2019-04-20T06:06:20.436Z,10.86
2019-04-20T06:08:53.881Z,11.36
2019-04-20T06:11:14.624Z,11.25
2019-04-20T06:13:43.045Z,11.54
2019-04-20T06:16:18.181Z,11.08
2019-04-20T06:18:49.705Z,11.08
2019-04-20T06:21:35.372Z,11.39
2019-04-20T06:23:56.386Z,10.02
2019-04-20T06:26:44.121Z,10.22
2019-04-20T06:28:55.754Z,11.00
2019-04-20T06:31:31.957Z,11.58
2019-04-20T06:34:30.128Z,11.93
2019-04-20T06:36:49.924Z,11.20
2019-04-20T06:39:21.402Z,11.72
2019-04-20T06:42:14.046Z,11.27
2019-04-20T06:44:24.228Z,11.94
2019-04-20T06:47:00.138Z,11.05
2019-04-20T06:49:25.661Z,11.32
2019-04-20T06:51:59.409Z,11.30
2019-04-20T06:54:36.093Z,11.73
2019-04-20T06:57:07.335Z,11.09
2019-04-20T06:59:38.706Z,11.52
2019-04-20T07:02:11.968Z,11.38
2019-04-20T07:07:10.191Z,11.84
2019-04-20T07:09:47.429Z,11.70
2019-04-20T07:12:03.018Z,12.32
2019-04-20T07:14:27.486Z,11.63
2019-04-20T07:17:24.553Z,12.30
2019-04-20T07:19:39.933Z,10.78
2019-04-20T07:22:32.222Z,11.80
2019-04-20T07:24:59.308Z,12.00
2019-04-20T07:27:24.346Z,11.70
2019-04-20T07:32:17.781Z,10.69
2019-04-20T07:34:56.775Z,11.56
2019-04-20T07:40:11.618Z,12.08
2019-04-20T07:42:40.755Z,11.10
2019-04-20T07:45:19.918Z,10.93
2019-04-20T07:50:09.314Z,11.49
2019-04-20T07:52:33.911Z,11.29
2019-04-20T07:57:37.449Z,11.51
2019-04-20T08:00:17.555Z,11.81
2019-04-20T08:02:50.948Z,12.49
2019-04-20T08:05:18.246Z,11.16
2019-04-20T08:07:44.019Z,10.90
2019-04-20T08:10:06.448Z,11.27
2019-04-20T08:15:36.488Z,11.81
2019-04-20T08:18:11.259Z,11.57
2019-04-20T08:20:29.469Z,11.70
2019-04-20T08:22:58.695Z,10.27
2019-04-20T08:25:22.723Z,10.83
2019-04-20T08:27:55.097Z,11.66
2019-04-20T08:30:56.064Z,12.06
2019-04-20T08:33:28.011Z,10.74
2019-04-20T08:36:06.330Z,11.16
2019-04-20T08:39:07.764Z,11.91
2019-04-20T08:41:00.157Z,12.48
2019-04-20T08:43:39.563Z,12.57
2019-04-20T08:46:06.641Z,12.62
2019-04-20T08:48:33.253Z,12.64
2019-04-20T08:51:04.799Z,12.44
2019-04-20T08:53:50.195Z,13.08
2019-04-20T08:55:56.749Z,12.66
2019-04-20T08:58:13.732Z,12.75
2019-04-20T09:00:49.952Z,12.65
2019-04-20T09:03:20.162Z,12.23
2019-04-20T09:05:52.301Z,11.52
2019-04-20T09:08:21.246Z,11.82
2019-04-20T09:10:59.796Z,12.46
2019-04-20T09:13:25.983Z,12.18
2019-04-20T09:15:44.813Z,12.14
2019-04-20T09:18:32.466Z,12.18
2019-04-20T09:21:01.523Z,12.50
2019-04-20T09:23:41.135Z,12.63
2019-04-20T09:26:14.961Z,12.12
2019-04-20T09:28:56.820Z,12.69
2019-04-20T09:31:33.150Z,12.71
2019-04-20T09:34:07.524Z,12.31
2019-04-20T09:36:45.787Z,12.23
2019-04-20T09:39:24.738Z,11.79
2019-04-20T09:42:00.415Z,12.05
2019-04-20T09:44:24.561Z,11.98
2019-04-20T09:46:55.909Z,12.17
2019-04-20T09:49:37.506Z,12.13
2019-04-20T09:52:06.579Z,11.86
2019-04-20T09:54:42.925Z,12.35
2019-04-20T09:57:13.749Z,12.38
2019-04-20T09:59:45.030Z,12.16
2019-04-20T10:02:02.173Z,11.91
2019-04-20T10:04:25.698Z,12.16
2019-04-20T10:06:55.273Z,13.07
2019-04-20T10:09:29.115Z,13.19
2019-04-20T10:11:55.378Z,13.51
2019-04-20T10:14:24.806Z,13.34
2019-04-20T10:16:53.857Z,13.57
2019-04-20T10:19:30.009Z,13.10
2019-04-20T10:21:52.956Z,11.86
2019-04-20T10:24:21.596Z,11.38
2019-04-20T10:26:50.524Z,11.47
2019-04-20T10:29:19.578Z,12.07
2019-04-20T10:31:54.637Z,11.74
2019-04-20T10:34:22.104Z,12.18
2019-04-20T10:36:51.433Z,11.67
2019-04-20T10:39:22.530Z,11.79
2019-04-20T10:44:25.557Z,12.36
2019-04-20T10:46:54.272Z,12.13
2019-04-20T10:49:22.909Z,12.60
2019-04-20T10:51:51.777Z,13.48
2019-04-20T10:54:20.539Z,13.37
2019-04-20T10:56:49.788Z,12.79
2019-04-20T10:59:19.375Z,12.89
2019-04-20T11:01:48.027Z,13.00
2019-04-20T11:04:16.753Z,12.99
2019-04-20T11:06:46.849Z,13.57
2019-04-20T11:09:16.489Z,13.04
2019-04-20T11:11:46.100Z,13.06
2019-04-20T11:14:22.807Z,12.46
2019-04-20T11:16:46.585Z,13.09
2019-04-20T11:19:15.655Z,12.63
2019-04-20T11:21:46.196Z,12.96
2019-04-20T11:24:16.294Z,13.05
2019-04-20T11:26:45.635Z,13.95
2019-04-20T11:29:16.103Z,12.99
2019-04-20T11:31:49.236Z,13.00
2019-04-20T11:34:23.592Z,13.57
2019-04-20T11:36:47.078Z,13.33
2019-04-20T11:39:16.848Z,13.32
2019-04-20T11:41:45.771Z,12.82
2019-04-20T11:44:15.700Z,13.60
2019-04-20T11:46:44.907Z,13.46
2019-04-20T11:49:13.556Z,14.07
2019-04-20T11:51:43.439Z,13.79
2019-04-20T11:54:12.498Z,13.95
2019-04-20T11:56:45.300Z,14.11
2019-04-20T11:59:12.648Z,13.36
2019-04-20T12:02:03.579Z,13.72
2019-04-20T12:04:44.173Z,13.45
2019-04-20T12:07:06.833Z,12.98
2019-04-20T12:09:35.546Z,13.19
2019-04-20T12:12:16.869Z,13.14
2019-04-20T12:14:34.697Z,13.26
2019-04-20T12:17:03.796Z,13.21
2019-04-20T12:19:34.806Z,13.71
2019-04-20T12:22:03.551Z,13.12
2019-04-20T12:24:33.217Z,12.68
2019-04-20T12:27:02.927Z,12.71
2019-04-20T12:29:32.093Z,13.36
2019-04-20T12:32:02.288Z,13.08
2019-04-20T12:34:31.117Z,13.06
2019-04-20T12:37:00.736Z,13.88
2019-04-20T12:39:29.438Z,13.83
2019-04-20T12:42:02.146Z,14.15
2019-04-20T12:44:28.449Z,14.12
2019-04-20T12:46:57.186Z,14.33
2019-04-20T12:49:25.907Z,14.71
2019-04-20T12:51:59.457Z,14.24
2019-04-20T12:54:24.961Z,14.07
2019-04-20T12:56:53.618Z,14.19
2019-04-20T12:59:23.445Z,13.50
2019-04-20T13:01:53.361Z,13.84
2019-04-20T13:04:22.703Z,13.34
2019-04-20T13:06:53.737Z,13.60
2019-04-20T13:09:22.861Z,13.86
2019-04-20T13:11:59.044Z,13.61
2019-04-20T13:14:52.705Z,13.58
2019-04-20T13:17:22.179Z,13.34
2019-04-20T13:19:51.250Z,13.27
2019-04-20T13:22:21.088Z,14.07
2019-04-20T13:24:49.833Z,14.15
2019-04-20T13:27:18.745Z,14.50
2019-04-20T13:29:50.549Z,13.17
2019-04-20T13:32:18.164Z,13.08
2019-04-20T13:34:47.680Z,13.29
2019-04-20T13:37:16.309Z,13.41
2019-04-20T13:39:44.959Z,13.59
2019-04-20T13:42:20.741Z,12.85
2019-04-20T13:44:45.166Z,13.35
2019-04-20T13:47:14.907Z,12.71
2019-04-20T13:49:43.563Z,12.66
2019-04-20T13:52:14.730Z,13.27
2019-04-20T13:54:44.106Z,13.30
2019-04-20T13:57:21.988Z,13.79
2019-04-20T13:59:55.874Z,13.19
2019-04-20T14:02:38.634Z,13.00
2019-04-20T14:05:08.684Z,13.11
2019-04-20T14:07:37.626Z,12.99
2019-04-20T14:10:07.124Z,12.87
2019-04-20T14:12:40.253Z,13.08
2019-04-20T14:15:08.986Z,13.08
2019-04-20T14:17:37.723Z,13.43
2019-04-20T14:20:12.116Z,14.10
2019-04-20T14:22:37.099Z,13.61
2019-04-20T14:25:07.035Z,13.71
2019-04-20T14:27:37.030Z,13.24
2019-04-20T14:30:07.172Z,13.76
2019-04-20T14:32:36.821Z,13.80
2019-04-20T14:35:07.200Z,13.02
2019-04-20T14:37:36.070Z,13.18
2019-04-20T14:40:08.107Z,13.19
2019-04-20T14:42:44.853Z,12.87
2019-04-20T14:45:10.961Z,12.67
2019-04-20T14:47:39.773Z,13.70
2019-04-20T14:50:09.784Z,13.35
2019-04-20T14:52:39.646Z,13.87
2019-04-20T14:55:08.644Z,13.25
2019-04-20T14:57:37.460Z,12.46
2019-04-20T15:00:15.681Z,12.41
2019-04-20T15:02:44.342Z,13.19
2019-04-20T15:05:12.977Z,12.69
2019-04-20T15:07:42.639Z,13.33
2019-04-20T15:10:11.329Z,11.99
2019-04-20T15:12:48.824Z,11.90
2019-04-20T15:15:10.673Z,12.87
2019-04-20T15:17:43.915Z,13.00
2019-04-20T15:20:15.199Z,13.16
2019-04-20T15:22:45.524Z,12.72
2019-04-20T15:25:14.178Z,12.80
2019-04-20T15:27:45.791Z,12.60
2019-04-20T15:30:14.103Z,12.53
2019-04-20T15:32:43.114Z,13.09
2019-04-20T15:35:13.151Z,13.65
2019-04-20T15:37:42.452Z,13.72
2019-04-20T15:40:13.062Z,13.02
2019-04-20T15:42:51.535Z,13.46
2019-04-20T15:45:13.478Z,13.34
2019-04-20T15:47:43.675Z,12.89
2019-04-20T15:50:13.865Z,12.35
2019-04-20T15:52:50.061Z,13.20
2019-04-20T15:55:22.880Z,13.76
2019-04-20T15:57:44.750Z,13.81
2019-04-20T16:00:14.286Z,12.64
2019-04-20T16:02:57.095Z,12.77
2019-04-20T16:05:28.271Z,13.32
2019-04-20T16:08:01.977Z,13.30
2019-04-20T16:10:29.054Z,13.00
2019-04-20T16:13:12.344Z,13.33
2019-04-20T16:15:29.591Z,12.84
2019-04-20T16:17:58.885Z,12.54
2019-04-20T16:20:29.327Z,13.44
2019-04-20T16:22:58.552Z,12.89
2019-04-20T16:25:35.353Z,12.85
2019-04-20T16:28:05.624Z,12.52
2019-04-20T16:30:35.728Z,12.01
2019-04-20T16:33:04.659Z,12.74
2019-04-20T16:35:34.248Z,12.32
2019-04-20T16:38:02.867Z,12.53
2019-04-20T16:40:31.589Z,13.26
2019-04-20T16:43:00.468Z,12.81
2019-04-20T16:45:29.573Z,13.11
2019-04-20T16:47:59.945Z,13.16
2019-04-20T16:50:28.913Z,12.67
2019-04-20T16:52:59.038Z,12.74
2019-04-20T16:55:28.507Z,12.81
2019-04-20T16:57:57.516Z,13.20
2019-04-20T17:00:27.400Z,12.99
2019-04-20T17:02:56.332Z,12.81
2019-04-20T17:05:25.772Z,12.81
2019-04-20T17:07:59.046Z,13.12
2019-04-20T17:10:28.915Z,12.87
2019-04-20T17:12:57.780Z,11.98
2019-04-20T17:15:27.576Z,12.39
2019-04-20T17:17:57.512Z,12.82
2019-04-20T17:20:27.519Z,11.98
2019-04-20T17:22:58.204Z,12.61
2019-04-20T17:25:28.030Z,12.80
2019-04-20T17:28:15.023Z,12.91
2019-04-20T17:30:49.058Z,13.11
2019-04-20T17:33:33.791Z,13.03
2019-04-20T17:36:11.020Z,12.88
2019-04-20T17:38:37.486Z,11.87
2019-04-20T17:41:29.115Z,12.20
2019-04-20T17:43:50.891Z,12.06
2019-04-20T17:46:11.925Z,12.44
2019-04-20T17:48:45.133Z,12.29
2019-04-20T17:51:29.135Z,11.93
2019-04-20T17:53:44.671Z,12.17
2019-04-20T17:56:08.627Z,12.10
2019-04-20T17:58:39.504Z,11.31
2019-04-20T18:01:22.984Z,11.80
2019-04-20T18:04:11.075Z,11.91
2019-04-20T18:06:31.730Z,11.73
2019-04-20T18:08:59.848Z,11.53
2019-04-20T18:11:21.412Z,11.62
2019-04-20T18:13:47.885Z,11.86
2019-04-20T18:16:45.042Z,11.93
2019-04-20T18:19:11.711Z,11.63
2019-04-20T18:21:43.565Z,11.63
2019-04-20T18:24:23.962Z,11.51
2019-04-20T18:26:59.752Z,11.94
2019-04-20T18:29:32.986Z,11.82
2019-04-20T18:31:55.564Z,11.76
2019-04-20T18:34:27.809Z,11.74
2019-04-20T18:36:56.570Z,11.93
2019-04-20T18:39:37.500Z,11.61
2019-04-20T18:42:08.209Z,11.78
2019-04-20T18:44:39.120Z,12.06
2019-04-20T18:47:19.344Z,12.32
2019-04-20T18:49:41.921Z,12.15
2019-04-20T18:51:58.221Z,12.06
2019-04-20T18:54:32.269Z,12.23
2019-04-20T18:56:58.404Z,12.24
2019-04-20T18:59:35.151Z,12.22
2019-04-20T19:01:59.249Z,12.11
2019-04-20T19:04:28.312Z,12.23
2019-04-20T19:06:57.382Z,12.03
2019-04-20T19:09:29.877Z,11.86
2019-04-20T19:12:02.171Z,11.69
2019-04-20T19:14:37.047Z,11.77
2019-04-20T19:17:29.084Z,11.58
2019-04-20T19:20:05.269Z,11.26
2019-04-20T19:22:36.495Z,11.13
2019-04-20T19:25:05.735Z,11.51
2019-04-20T19:27:41.449Z,11.41
2019-04-20T19:30:18.391Z,11.76
2019-04-20T19:32:54.859Z,11.61
2019-04-20T19:35:24.112Z,11.50
2019-04-20T19:37:50.173Z,11.43
2019-04-20T19:40:20.909Z,11.28
2019-04-20T19:42:58.740Z,11.60
2019-04-20T19:45:40.040Z,11.57
2019-04-20T19:47:55.720Z,11.41
2019-04-20T19:50:36.887Z,10.80
2019-04-20T19:53:15.470Z,11.06
2019-04-20T19:55:27.348Z,11.08
2019-04-20T19:57:59.112Z,10.93
2019-04-20T20:00:14.618Z,11.06
2019-04-20T20:02:43.529Z,11.24
2019-04-20T20:05:15.726Z,10.97
2019-04-20T20:07:46.362Z,11.14
2019-04-20T20:10:14.626Z,10.64
2019-04-20T20:12:48.414Z,10.85
2019-04-20T20:15:22.313Z,11.14
2019-04-20T20:18:08.540Z,10.98
2019-04-20T20:20:35.804Z,11.06
2019-04-20T20:22:49.764Z,10.88
2019-04-20T20:25:15.122Z,10.87
2019-04-20T20:27:50.821Z,10.94
2019-04-20T20:30:23.056Z,10.68
2019-04-20T20:33:01.101Z,10.83
2019-04-20T20:35:22.025Z,10.71
2019-04-20T20:37:53.470Z,10.80
2019-04-20T20:40:25.667Z,10.47
2019-04-20T20:42:58.106Z,10.48
2019-04-20T20:45:28.916Z,10.54
2019-04-20T20:48:05.007Z,10.76
2019-04-20T20:50:36.412Z,10.84
2019-04-20T20:53:00.824Z,10.69
2019-04-20T20:55:29.180Z,10.69
2019-04-20T20:58:00.631Z,10.42
2019-04-20T21:00:34.277Z,10.04
2019-04-20T21:02:58.489Z,9.92
2019-04-20T21:05:21.841Z,9.90
2019-04-20T21:07:51.361Z,10.42
2019-04-20T21:10:25.899Z,10.21
2019-04-20T21:12:55.500Z,10.02
2019-04-20T21:15:22.783Z,9.74
2019-04-20T21:18:17.679Z,9.78
2019-04-20T21:20:45.308Z,9.44
2019-04-20T21:23:07.343Z,9.31
2019-04-20T21:25:34.526Z,9.31
2019-04-20T21:28:00.586Z,9.15
2019-04-20T21:30:35.008Z,9.15
2019-04-20T21:33:03.417Z,9.75
2019-04-20T21:35:36.987Z,9.44
2019-04-20T21:38:06.200Z,9.00
2019-04-20T21:40:36.248Z,9.49
2019-04-20T21:43:05.777Z,9.30
2019-04-20T21:45:36.068Z,9.30
2019-04-20T21:48:09.810Z,8.40
2019-04-20T21:50:52.743Z,9.24
2019-04-20T21:53:11.878Z,9.24
2019-04-20T21:55:34.128Z,8.96
2019-04-20T21:58:05.317Z,9.19
2019-04-20T22:00:42.564Z,9.02
2019-04-20T22:03:11.293Z,9.52
2019-04-20T22:05:38.587Z,9.73
2019-04-20T22:08:09.606Z,9.38
2019-04-20T22:10:38.674Z,8.52
2019-04-20T22:13:07.794Z,8.34
2019-04-20T22:15:48.645Z,8.58
2019-04-20T22:18:12.360Z,8.58
2019-04-20T23:20:25.329Z,8.18
2019-04-20T23:22:50.839Z,8.17
2019-04-20T23:25:18.071Z,8.30
2019-04-20T23:27:46.749Z,8.24
2019-04-20T23:30:23.616Z,8.56
2019-04-20T23:32:46.344Z,8.21
2019-04-20T23:35:18.634Z,8.21
2019-04-20T23:37:46.511Z,8.55
2019-04-20T23:40:16.714Z,8.45
2019-04-20T23:42:53.759Z,8.18
2019-04-20T23:45:31.681Z,8.35
2019-04-20T23:48:05.386Z,7.75
2019-04-20T23:50:50.744Z,7.75
2019-04-20T23:53:27.311Z,7.76
2019-04-20T23:55:36.239Z,7.50
2019-04-20T23:58:07.443Z,7.50
